Duluth International Airport
KDLH : rendu visible

Aérodrome :











RETROUVEZ-NOUS SUR...

 
LOGIN :

S'inscrire | Disclaimer

   EN    FR    IT 

 









Légende :    VFR   VFR Marginal   IFR   IFR Intensif   IFR Très Intensif
Visi : 
Plafond : 
>= 8 km
>= 3000ft
5 à 8 km
1000 à 3000 ft
1500m à 5 km
500 à 1000 ft
800 à 1500m
200 à 500 ft
< 800m
< 200 ft
Symboles :   Orages  Brouillard  Fortes neiges  Fortes précipitations  Vent > 20 kt






- Altitude de l'aérodrome : 1428 ft
- Code IATA : DLH


KDLH - Duluth International

DERNIER METAR :
  • 250655Z 04005KT 10SM CLR M05/M11 A3011 RMK AO2 SLP219 T10501111

METARs EXPIRÉS :
  • 250555Z 01007KT 10SM CLR M04/M10 A3010 RMK AO2 SLP214 T10391100 10006 21039 400391067 51012
  • 250455Z 36007KT 10SM CLR M03/M10 A3009 RMK AO2 SLP210 T10331100

TAF KDLH
Valide du 25 à 06h jusqu'au 26 à 06h UTC


250534Z 2506/2606 36006KT P6SM SKC
FM251900 02008KT P6SM BKN025



MET'MAP, la Météo Aéronautique d'un coup d'oeil ! - Copyright ORBIFLY Décembre 2007 - Disclaimer

ORBIFLY MET'MAP TEAM :

Programmation & Développement : Alexandra Zaïnal
Sur une idée originale de : Baudouin d'Aumeries
Assistance à la programmation : Marc-Olivier Méhu
Soutien technique & logistique : Manuel Goepfert

Contact : metmap@orbifly.com




SOURCES & CREDITS :

   NOAA       Earth
Advisory